createdAt,value
2022-08-20T00:01:40.043Z,5.23
2022-08-20T00:04:10.361Z,5.27
2022-08-20T00:06:42.343Z,5.20
2022-08-20T00:09:12.406Z,5.12
2022-08-20T00:11:42.372Z,5.16
2022-08-20T00:14:12.229Z,5.16
2022-08-20T00:16:41.974Z,5.20
2022-08-20T00:19:12.081Z,5.20
2022-08-20T00:21:41.453Z,5.26
2022-08-20T00:24:11.710Z,5.27
2022-08-20T00:26:51.777Z,5.29
2022-08-20T00:29:22.797Z,5.32
2022-08-20T00:31:52.818Z,5.34
2022-08-20T00:34:22.626Z,5.42
2022-08-20T00:36:52.402Z,5.44
2022-08-20T00:39:22.237Z,5.46
2022-08-20T00:41:53.129Z,5.40
2022-08-20T00:44:24.344Z,5.46
2022-08-20T00:46:55.957Z,5.40
2022-08-20T00:49:29.562Z,5.42
2022-08-20T00:52:09.191Z,5.44
2022-08-20T00:54:48.403Z,5.32
2022-08-20T00:57:44.515Z,5.19
2022-08-20T01:00:29.097Z,5.11
2022-08-20T01:03:01.693Z,5.16
2022-08-20T01:05:32.366Z,5.22
2022-08-20T01:08:07.080Z,5.13
2022-08-20T01:10:43.165Z,5.05
2022-08-20T01:13:41.076Z,5.09
2022-08-20T01:16:28.138Z,5.15
2022-08-20T01:19:29.476Z,5.11
2022-08-20T01:26:39.914Z,5.18
2022-08-20T01:29:26.580Z,5.15
2022-08-20T01:39:08.447Z,4.99
2022-08-20T01:41:41.556Z,4.92
2022-08-20T01:44:34.737Z,4.91
2022-08-20T01:47:50.699Z,4.86
2022-08-20T01:50:45.619Z,4.89
2022-08-20T01:53:35.744Z,4.88
2022-08-20T02:00:44.687Z,4.85
2022-08-20T02:03:44.414Z,4.91
2022-08-20T02:06:56.170Z,4.93
2022-08-20T02:09:55.939Z,4.78
2022-08-20T02:15:39.821Z,4.67
2022-08-20T02:18:16.596Z,4.57
2022-08-20T02:20:47.355Z,4.55
2022-08-20T02:23:17.909Z,4.64
2022-08-20T02:25:49.545Z,4.53
2022-08-20T02:28:21.798Z,4.54
2022-08-20T02:30:56.823Z,4.54
2022-08-20T02:33:27.048Z,4.47
2022-08-20T02:35:57.610Z,4.51
2022-08-20T02:38:27.796Z,4.50
2022-08-20T02:40:57.521Z,4.50
2022-08-20T02:43:27.260Z,4.41
2022-08-20T02:45:56.979Z,4.40
2022-08-20T02:48:27.877Z,4.33
2022-08-20T02:51:06.208Z,4.29
2022-08-20T02:53:42.861Z,4.26
2022-08-20T02:56:12.833Z,4.24
2022-08-20T02:58:43.211Z,4.26
2022-08-20T03:01:16.168Z,4.27
2022-08-20T03:03:47.122Z,4.26
2022-08-20T03:06:17.736Z,4.27
2022-08-20T03:08:47.504Z,4.30
2022-08-20T03:11:17.661Z,4.33
2022-08-20T03:13:46.907Z,4.24
2022-08-20T03:16:17.824Z,4.26
2022-08-20T03:18:49.203Z,4.29
2022-08-20T03:21:22.273Z,4.32
2022-08-20T03:23:52.039Z,4.30
2022-08-20T03:26:22.032Z,4.38
2022-08-20T03:28:51.891Z,4.48
2022-08-20T03:31:22.210Z,4.68
2022-08-20T03:33:53.466Z,4.84
2022-08-20T03:36:28.074Z,4.88
2022-08-20T03:39:00.534Z,4.92
2022-08-20T03:41:33.281Z,5.08
2022-08-20T03:44:03.150Z,5.12
2022-08-20T03:46:32.878Z,5.05
2022-08-20T03:49:02.752Z,4.95
2022-08-20T03:51:51.460Z,4.91
2022-08-20T03:54:23.629Z,4.84
2022-08-20T03:56:57.991Z,4.78
2022-08-20T03:59:28.368Z,4.65
2022-08-20T04:01:58.326Z,4.54
2022-08-20T04:04:28.565Z,4.50
2022-08-20T04:06:58.285Z,4.50
2022-08-20T04:09:28.341Z,4.51
2022-08-20T04:12:01.328Z,4.48
2022-08-20T04:14:31.508Z,4.37
2022-08-20T04:17:07.525Z,4.30
2022-08-20T04:19:40.648Z,4.29
2022-08-20T04:22:10.594Z,4.23
2022-08-20T04:24:40.289Z,4.26
2022-08-20T04:27:10.664Z,4.26
2022-08-20T04:29:44.289Z,4.30
2022-08-20T04:32:15.128Z,4.23
2022-08-20T04:34:48.608Z,4.11
2022-08-20T04:37:22.699Z,4.10
2022-08-20T04:40:12.938Z,4.10
2022-08-20T04:42:43.561Z,4.10
2022-08-20T04:45:12.985Z,4.13
2022-08-20T04:47:42.955Z,4.10
2022-08-20T04:50:15.054Z,4.03
2022-08-20T04:52:45.206Z,4.09
2022-08-20T04:55:14.999Z,4.14
2022-08-20T04:57:45.576Z,4.10
2022-08-20T05:00:18.443Z,4.03
2022-08-20T05:02:48.754Z,3.99
2022-08-20T05:05:18.456Z,3.87
2022-08-20T05:07:48.454Z,3.87
2022-08-20T05:10:21.079Z,3.90
2022-08-20T05:12:55.630Z,3.90
2022-08-20T05:15:27.471Z,3.86
2022-08-20T05:18:01.596Z,3.83
2022-08-20T05:20:33.254Z,3.83
2022-08-20T05:23:04.430Z,3.82
2022-08-20T05:25:35.949Z,3.83
2022-08-20T05:28:10.951Z,3.69
2022-08-20T05:30:44.079Z,3.69
2022-08-20T05:33:20.992Z,3.71
2022-08-20T05:35:53.883Z,3.62
2022-08-20T05:38:27.590Z,3.54
2022-08-20T05:40:57.859Z,3.47
2022-08-20T05:43:27.830Z,3.42
2022-08-20T05:45:59.583Z,3.44
2022-08-20T05:48:31.506Z,3.35
2022-08-20T05:51:01.877Z,3.35
2022-08-20T05:53:32.013Z,3.35
2022-08-20T05:56:03.139Z,3.35
2022-08-20T05:58:34.121Z,3.35
2022-08-20T06:01:04.197Z,3.30
2022-08-20T06:03:52.073Z,3.23
2022-08-20T06:06:45.020Z,3.17
2022-08-20T06:09:12.592Z,3.18
2022-08-20T06:11:42.303Z,3.11
2022-08-20T06:14:12.070Z,3.06
2022-08-20T06:16:50.396Z,3.04
2022-08-20T06:19:32.267Z,2.97
2022-08-20T06:22:08.730Z,3.01
2022-08-20T06:24:50.877Z,3.03
2022-08-20T06:27:22.051Z,3.04
2022-08-20T06:29:52.733Z,3.01
2022-08-20T06:32:31.751Z,2.96
2022-08-20T06:35:09.396Z,2.96
2022-08-20T06:37:40.967Z,2.90
2022-08-20T06:40:20.801Z,2.99
2022-08-20T06:42:52.436Z,2.95
2022-08-20T06:45:27.055Z,2.87
2022-08-20T06:47:59.704Z,2.87
2022-08-20T06:50:47.503Z,2.90
2022-08-20T06:53:20.288Z,2.83
2022-08-20T06:55:57.147Z,2.85
2022-08-20T06:58:37.191Z,2.90
2022-08-20T07:01:11.101Z,2.90
2022-08-20T07:03:54.927Z,2.78
2022-08-20T07:06:27.110Z,2.73
2022-08-20T07:08:57.426Z,2.75
2022-08-20T07:11:28.435Z,2.80
2022-08-20T07:14:00.127Z,2.82
2022-08-20T07:16:30.197Z,2.87
2022-08-20T07:19:00.059Z,2.89
2022-08-20T07:21:31.503Z,2.82
2022-08-20T07:24:01.725Z,2.79
2022-08-20T07:26:31.452Z,2.79
2022-08-20T07:29:01.416Z,2.71
2022-08-20T07:31:49.519Z,2.68
2022-08-20T07:34:19.606Z,2.71
2022-08-20T07:36:49.956Z,2.68
2022-08-20T07:39:20.498Z,2.79
2022-08-20T07:42:04.105Z,2.76
2022-08-20T07:44:33.992Z,2.60
2022-08-20T07:47:06.644Z,2.60
2022-08-20T07:49:39.992Z,2.60
2022-08-20T07:52:10.708Z,2.58
2022-08-20T07:54:41.075Z,2.62
2022-08-20T07:57:12.576Z,2.65
2022-08-20T07:59:42.437Z,2.62
2022-08-20T08:02:12.154Z,2.66
2022-08-20T08:04:42.107Z,2.62
2022-08-20T08:07:11.747Z,2.50
2022-08-20T08:09:41.701Z,2.49
2022-08-20T08:12:14.113Z,2.65
2022-08-20T08:14:47.317Z,2.63
2022-08-20T08:17:19.693Z,2.71
2022-08-20T08:19:52.568Z,2.72
2022-08-20T08:22:22.802Z,2.71
2022-08-20T08:24:57.437Z,2.71
2022-08-20T08:27:27.991Z,2.71
2022-08-20T08:30:02.677Z,2.78
2022-08-20T08:32:33.494Z,2.76
2022-08-20T08:35:08.630Z,2.72
2022-08-20T08:37:39.296Z,2.69
2022-08-20T08:40:10.182Z,2.68
2022-08-20T08:42:49.332Z,2.63
2022-08-20T08:45:20.885Z,2.62
2022-08-20T08:47:51.224Z,2.62
2022-08-20T08:50:50.105Z,2.52
2022-08-20T08:53:34.799Z,2.38
2022-08-20T08:56:09.019Z,2.31
2022-08-20T08:58:39.436Z,2.28
2022-08-20T09:01:56.277Z,2.27
2022-08-20T09:04:21.725Z,2.13
2022-08-20T09:06:56.571Z,2.07
2022-08-20T09:09:31.079Z,2.04
2022-08-20T09:12:16.346Z,2.03
2022-08-20T09:14:49.062Z,1.97
2022-08-20T09:17:20.828Z,1.98
2022-08-20T09:19:53.261Z,1.98
2022-08-20T09:22:27.070Z,1.97
2022-08-20T09:24:57.450Z,1.91
2022-08-20T09:27:27.164Z,1.91
2022-08-20T09:29:56.953Z,1.87
2022-08-20T09:32:27.128Z,1.89
2022-08-20T09:34:57.660Z,1.84
2022-08-20T09:37:33.686Z,1.84
2022-08-20T09:40:11.003Z,1.84
2022-08-20T09:42:41.869Z,1.81
2022-08-20T09:45:13.513Z,1.77
2022-08-20T09:47:56.229Z,1.76
2022-08-20T09:50:30.164Z,1.77
2022-08-20T09:53:02.521Z,1.76
2022-08-20T09:55:47.230Z,1.77
2022-08-20T09:58:40.191Z,1.83
2022-08-20T10:01:16.083Z,1.83
2022-08-20T10:03:49.862Z,1.86
2022-08-20T10:06:21.407Z,1.87
2022-08-20T10:08:52.168Z,1.94
2022-08-20T10:11:22.303Z,2.00
2022-08-20T10:13:52.220Z,2.00
2022-08-20T10:16:21.969Z,2.03
2022-08-20T10:18:51.690Z,2.11
2022-08-20T10:21:21.914Z,2.34
2022-08-20T10:23:51.910Z,2.44
2022-08-20T10:26:21.990Z,2.72
2022-08-20T10:28:51.845Z,2.96
2022-08-20T10:31:22.004Z,3.23
2022-08-20T10:33:51.318Z,3.39
2022-08-20T10:36:21.247Z,3.48
2022-08-20T10:38:51.416Z,3.71
2022-08-20T10:41:22.513Z,3.89
2022-08-20T10:43:52.657Z,4.14
2022-08-20T10:46:22.355Z,4.29
2022-08-20T10:48:52.128Z,4.34
2022-08-20T10:51:21.885Z,4.48
2022-08-20T10:54:02.664Z,4.72
2022-08-20T10:56:38.272Z,4.91
2022-08-20T10:59:08.178Z,4.99
2022-08-20T11:01:38.190Z,5.23
2022-08-20T11:04:07.529Z,5.85
2022-08-20T11:06:37.180Z,7.42
2022-08-20T11:09:06.926Z,8.00
2022-08-20T11:11:40.013Z,9.48
2022-08-20T11:14:09.773Z,10.82
2022-08-20T11:16:39.535Z,10.88
2022-08-20T11:19:09.239Z,11.91
2022-08-20T11:21:38.956Z,13.01
2022-08-20T11:24:08.825Z,13.72
2022-08-20T11:26:38.714Z,13.72
2022-08-20T11:29:07.976Z,14.67
2022-08-20T11:31:37.589Z,15.26
2022-08-20T11:34:12.070Z,15.36
2022-08-20T11:36:42.963Z,15.54
2022-08-20T11:39:13.267Z,15.91
2022-08-20T11:41:43.820Z,15.19
2022-08-20T11:44:20.886Z,15.35
2022-08-20T11:46:51.706Z,15.94
2022-08-20T11:49:21.598Z,15.32
2022-08-20T11:51:51.350Z,15.32
2022-08-20T11:54:21.109Z,15.97
2022-08-20T11:56:51.706Z,16.09
2022-08-20T11:59:22.087Z,16.30
2022-08-20T12:02:03.161Z,16.57
2022-08-20T12:04:35.007Z,16.16
2022-08-20T12:07:19.638Z,16.84
2022-08-20T12:09:51.062Z,16.44
2022-08-20T12:12:25.052Z,15.98
2022-08-20T12:14:56.827Z,16.12
2022-08-20T12:17:30.808Z,16.32
2022-08-20T12:20:05.040Z,15.95
2022-08-20T12:22:35.453Z,16.53
2022-08-20T12:25:07.255Z,16.63
2022-08-20T12:27:39.025Z,16.18
2022-08-20T12:30:16.505Z,16.42
2022-08-20T12:32:46.439Z,16.15
2022-08-20T12:35:18.214Z,15.67
2022-08-20T12:37:48.569Z,15.32
2022-08-20T12:40:30.827Z,15.60
2022-08-20T12:43:04.101Z,15.78
2022-08-20T12:45:37.129Z,15.98
2022-08-20T12:48:10.915Z,16.28
2022-08-20T12:50:43.576Z,16.22
2022-08-20T12:53:13.909Z,16.25
2022-08-20T12:55:43.807Z,16.28
2022-08-20T12:58:13.616Z,16.49
2022-08-20T13:00:50.344Z,16.11
2022-08-20T13:03:22.496Z,16.19
2022-08-20T13:05:52.723Z,16.21
2022-08-20T13:08:22.471Z,16.59
2022-08-20T13:10:53.264Z,16.29
2022-08-20T13:13:23.876Z,16.63
2022-08-20T13:15:54.006Z,16.42
2022-08-20T13:18:24.032Z,16.59
2022-08-20T13:20:53.839Z,16.88
2022-08-20T13:23:23.611Z,17.11
2022-08-20T13:25:53.639Z,16.67
2022-08-20T13:28:23.457Z,16.35
2022-08-20T13:30:53.209Z,16.63
2022-08-20T13:33:23.290Z,17.51
2022-08-20T13:35:53.018Z,16.66
2022-08-20T13:38:23.032Z,16.84
2022-08-20T13:40:54.937Z,16.87
2022-08-20T13:43:25.561Z,17.28
2022-08-20T13:45:56.090Z,17.38
2022-08-20T13:48:26.566Z,16.77
2022-08-20T13:50:56.382Z,16.77
2022-08-20T13:53:26.751Z,17.36
2022-08-20T13:55:57.526Z,18.40
2022-08-20T13:58:27.478Z,17.65
2022-08-20T14:00:57.376Z,17.89
2022-08-20T14:03:27.207Z,18.30
2022-08-20T14:05:58.434Z,18.62
2022-08-20T14:08:28.892Z,18.84
2022-08-20T14:11:00.191Z,18.55
2022-08-20T14:13:32.741Z,18.17
2022-08-20T14:16:02.663Z,18.79
2022-08-20T14:18:32.662Z,19.19
2022-08-20T14:21:03.226Z,19.53
2022-08-20T14:23:33.031Z,19.02
2022-08-20T14:26:07.245Z,19.09
2022-08-20T14:28:37.251Z,18.87
2022-08-20T14:31:07.121Z,19.22
2022-08-20T14:33:39.327Z,19.60
2022-08-20T14:36:12.769Z,19.26
2022-08-20T14:38:46.836Z,19.84
2022-08-20T14:41:17.381Z,20.11
2022-08-20T14:43:47.221Z,20.73
2022-08-20T14:46:18.482Z,20.45
2022-08-20T14:48:53.515Z,20.43
2022-08-20T14:51:24.444Z,20.16
2022-08-20T14:53:54.403Z,19.68
2022-08-20T14:56:24.359Z,20.22
2022-08-20T14:58:54.117Z,20.28
2022-08-20T15:01:25.298Z,21.51
2022-08-20T15:03:57.481Z,21.54
2022-08-20T15:06:36.644Z,21.34
2022-08-20T15:09:08.823Z,20.70
2022-08-20T15:11:41.075Z,20.81
2022-08-20T15:14:15.150Z,20.77
2022-08-20T15:16:49.712Z,20.65
2022-08-20T15:19:19.938Z,20.96
2022-08-20T15:21:50.173Z,21.12
2022-08-20T15:24:19.913Z,21.10
2022-08-20T15:26:49.806Z,21.51
2022-08-20T15:29:22.753Z,20.84
2022-08-20T15:31:53.664Z,20.87
2022-08-20T15:34:23.525Z,20.59
2022-08-20T15:36:53.368Z,20.79
2022-08-20T15:39:23.339Z,20.87
2022-08-20T15:41:53.085Z,21.21
2022-08-20T15:44:23.652Z,21.46
2022-08-20T15:46:53.826Z,21.27
2022-08-20T15:49:25.351Z,20.50
2022-08-20T15:51:55.604Z,20.55
2022-08-20T15:54:28.037Z,20.83
2022-08-20T15:57:33.187Z,21.08
2022-08-20T16:00:13.950Z,21.88
2022-08-20T16:02:53.794Z,21.73
2022-08-20T16:05:50.244Z,22.02
2022-08-20T16:08:38.307Z,21.58
2022-08-20T16:11:34.221Z,21.23
2022-08-20T16:14:18.102Z,21.83
2022-08-20T16:17:01.179Z,22.40
2022-08-20T16:19:55.862Z,22.09
2022-08-20T16:22:31.304Z,22.17
2022-08-20T16:25:02.136Z,22.17
2022-08-20T16:28:04.730Z,22.84
2022-08-20T16:30:50.017Z,22.96
2022-08-20T16:33:43.153Z,22.36
2022-08-20T16:36:26.485Z,21.92
2022-08-20T16:39:06.421Z,22.12
2022-08-20T16:41:41.131Z,22.34
2022-08-20T16:44:35.164Z,23.13
2022-08-20T16:47:13.952Z,21.90
2022-08-20T16:50:12.669Z,21.66
2022-08-20T16:52:46.644Z,21.42
2022-08-20T16:55:17.495Z,22.71
2022-08-20T16:57:49.421Z,24.11
2022-08-20T17:00:40.896Z,23.73
2022-08-20T17:03:39.135Z,24.08
2022-08-20T17:06:49.391Z,23.77
2022-08-20T17:09:36.045Z,23.27
2022-08-20T17:12:26.683Z,23.34
2022-08-20T17:14:59.458Z,22.87
2022-08-20T17:17:33.526Z,23.30
2022-08-20T17:20:20.490Z,23.61
2022-08-20T17:23:05.874Z,23.53
2022-08-20T17:25:40.897Z,22.96
2022-08-20T17:28:20.718Z,23.37
2022-08-20T17:30:51.248Z,24.28
2022-08-20T17:33:38.775Z,25.14
2022-08-20T17:36:13.319Z,25.33
2022-08-20T17:38:58.568Z,25.28
2022-08-20T17:41:36.984Z,25.59
2022-08-20T17:44:14.165Z,25.64
2022-08-20T17:46:47.595Z,24.97
2022-08-20T17:49:35.127Z,25.94
2022-08-20T17:52:13.246Z,26.37
2022-08-20T17:54:46.631Z,26.17
2022-08-20T17:57:19.965Z,26.91
2022-08-20T18:00:01.356Z,27.86
2022-08-20T18:02:35.773Z,26.87
2022-08-20T18:05:14.499Z,26.89
2022-08-20T18:08:05.743Z,27.16
2022-08-20T18:11:01.056Z,26.24
2022-08-20T18:14:01.931Z,26.41
2022-08-20T18:16:43.978Z,27.25
2022-08-20T18:19:34.497Z,26.29
2022-08-20T18:22:12.367Z,26.75
2022-08-20T18:24:46.383Z,27.30
2022-08-20T18:27:21.239Z,27.35
2022-08-20T18:30:03.387Z,27.86
2022-08-20T18:32:39.623Z,28.32
2022-08-20T18:35:21.490Z,27.38
2022-08-20T18:37:51.776Z,27.20
2022-08-20T18:40:31.324Z,28.25
2022-08-20T18:43:15.302Z,28.27
2022-08-20T18:45:45.833Z,28.48
2022-08-20T18:48:25.038Z,28.79
2022-08-20T18:50:58.272Z,28.05
2022-08-20T18:53:34.389Z,27.74
2022-08-20T18:56:09.931Z,28.00
2022-08-20T18:59:14.498Z,28.00
2022-08-20T19:01:47.439Z,27.66
2022-08-20T19:04:29.522Z,27.26
2022-08-20T19:07:07.539Z,27.25
2022-08-20T19:10:15.336Z,26.82
2022-08-20T19:13:13.092Z,26.33
2022-08-20T19:15:53.374Z,26.04
2022-08-20T19:18:32.519Z,24.00
2022-08-20T19:21:05.119Z,19.45
2022-08-20T19:23:52.503Z,17.96
2022-08-20T19:26:26.204Z,17.35
2022-08-20T19:29:01.220Z,16.84
2022-08-20T19:31:34.535Z,16.67
2022-08-20T19:34:21.631Z,16.53
2022-08-20T19:36:56.893Z,16.41
2022-08-20T19:39:29.777Z,16.29
2022-08-20T19:42:21.879Z,16.11
2022-08-20T19:45:06.081Z,15.97
2022-08-20T19:47:38.474Z,15.88
2022-08-20T19:50:49.752Z,15.91
2022-08-20T19:53:30.488Z,15.74
2022-08-20T19:56:09.457Z,15.70
2022-08-20T19:58:40.011Z,15.61
2022-08-20T20:01:23.228Z,15.57
2022-08-20T20:04:01.794Z,15.50
2022-08-20T20:06:39.635Z,15.44
2022-08-20T20:09:30.960Z,15.43
2022-08-20T20:12:05.276Z,15.42
2022-08-20T20:14:37.989Z,15.27
2022-08-20T20:17:09.915Z,15.13
2022-08-20T20:20:01.190Z,15.02
2022-08-20T20:22:48.205Z,14.88
2022-08-20T20:25:26.046Z,14.84
2022-08-20T20:27:59.924Z,14.67
2022-08-20T20:30:33.369Z,14.57
2022-08-20T20:33:12.905Z,14.50
2022-08-20T20:35:44.930Z,14.44
2022-08-20T20:38:29.525Z,14.36
2022-08-20T20:41:02.349Z,14.17
2022-08-20T20:43:44.112Z,14.05
2022-08-20T20:46:29.033Z,13.89
2022-08-20T20:49:10.380Z,13.83
2022-08-20T20:51:54.530Z,13.63
2022-08-20T20:54:33.410Z,13.48
2022-08-20T20:57:10.235Z,13.37
2022-08-20T20:59:40.408Z,13.17
2022-08-20T21:02:11.176Z,13.08
2022-08-20T21:04:42.783Z,13.15
2022-08-20T21:07:16.845Z,13.00
2022-08-20T21:09:47.254Z,12.96
2022-08-20T21:12:17.816Z,12.97
2022-08-20T21:14:48.138Z,12.86
2022-08-20T21:17:23.926Z,12.73
2022-08-20T21:19:53.905Z,12.70
2022-08-20T21:22:23.999Z,12.57
2022-08-20T21:24:54.171Z,12.43
2022-08-20T21:27:25.630Z,12.31
2022-08-20T21:29:56.491Z,12.34
2022-08-20T21:32:29.378Z,12.20
2022-08-20T21:34:59.542Z,12.10
2022-08-20T21:37:29.720Z,12.10
2022-08-20T21:39:59.758Z,12.21
2022-08-20T21:42:30.952Z,12.20
2022-08-20T21:45:01.791Z,12.17
2022-08-20T21:47:32.201Z,12.20
2022-08-20T21:50:02.002Z,12.15
2022-08-20T21:52:31.762Z,12.08
2022-08-20T21:55:01.520Z,12.01
2022-08-20T21:57:34.784Z,11.97
2022-08-20T22:00:22.437Z,11.88
2022-08-20T22:02:52.533Z,11.93
2022-08-20T22:05:22.694Z,11.80
2022-08-20T22:07:52.444Z,11.77
2022-08-20T22:10:22.605Z,11.74
2022-08-20T22:12:52.415Z,11.77
2022-08-20T22:15:22.394Z,11.70
2022-08-20T22:17:51.673Z,11.67
2022-08-20T22:20:21.429Z,11.54
2022-08-20T22:22:50.837Z,11.50
2022-08-20T22:25:20.694Z,11.42
2022-08-20T22:27:50.764Z,11.35
2022-08-20T22:30:20.656Z,11.29
2022-08-20T22:32:52.367Z,11.25
2022-08-20T22:35:33.444Z,11.22
2022-08-20T22:38:03.804Z,11.15
2022-08-20T22:40:33.580Z,11.14
2022-08-20T22:43:03.688Z,11.11
2022-08-20T22:45:33.781Z,11.02
2022-08-20T22:48:04.085Z,10.91
2022-08-20T22:50:33.957Z,10.84
2022-08-20T22:53:04.366Z,10.77
2022-08-20T22:55:34.033Z,10.67
2022-08-20T22:58:03.862Z,10.51
2022-08-20T23:00:36.663Z,10.43
2022-08-20T23:03:07.528Z,10.41
2022-08-20T23:05:38.953Z,10.53
2022-08-20T23:08:09.539Z,10.37
2022-08-20T23:10:40.526Z,10.30
2022-08-20T23:13:10.434Z,10.23
2022-08-20T23:15:45.493Z,10.12
2022-08-20T23:18:18.828Z,9.90
2022-08-20T23:20:54.372Z,9.77
2022-08-20T23:23:25.704Z,9.61
2022-08-20T23:25:56.621Z,9.51
2022-08-20T23:28:27.856Z,9.41
2022-08-20T23:30:58.131Z,9.32
2022-08-20T23:33:27.887Z,9.31
2022-08-20T23:35:58.060Z,9.27
2022-08-20T23:38:27.820Z,9.26
2022-08-20T23:41:02.154Z,9.19
2022-08-20T23:43:32.379Z,9.10
2022-08-20T23:46:05.716Z,9.03
2022-08-20T23:48:36.709Z,9.01
2022-08-20T23:51:06.833Z,9.00
2022-08-20T23:53:36.692Z,8.97
2022-08-20T23:56:06.857Z,8.94
2022-08-20T23:58:36.624Z,8.96
